Time;durP1;ratioP1;P1;durP2;ratioP2;P2;SDS_P1;SDS_P2;PMS_P1;PMS_P2;Temp;Humidity;BMP_temperature;BMP_pressure;BME280_temperature;BME280_humidity;BME280_pressure;Samples;Min_cycle;Max_cycle;Signal;HPM_P1;HPM_P2
2023/04/08 00:00:33;;;;;;;14.60;12.33;;;;;;;12.06;61.69;97671.28;5047860;28;20203;-72
2023/04/08 00:03:00;;;;;;;16.47;13.57;;;;;;;12.10;61.79;97663.94;5050400;28;20183;-72
2023/04/08 00:05:25;;;;;;;17.50;12.97;;;;;;;12.09;61.83;97675.41;5045429;28;20182;-72
2023/04/08 00:07:51;;;;;;;17.00;12.70;;;;;;;12.12;61.72;97672.50;5046704;28;20468;-71
2023/04/08 00:10:17;;;;;;;17.80;13.50;;;;;;;12.14;61.24;97673.19;5047343;28;20215;-70
2023/04/08 00:12:42;;;;;;;17.77;13.10;;;;;;;12.16;61.72;97678.28;5046076;28;20835;-71
2023/04/08 00:15:08;;;;;;;15.40;12.80;;;;;;;12.19;61.22;97681.41;5050163;28;20186;-71
2023/04/08 00:17:33;;;;;;;16.20;13.00;;;;;;;12.17;61.11;97674.66;5054128;28;20285;-72
2023/04/08 00:19:59;;;;;;;18.50;12.80;;;;;;;12.17;61.14;97678.09;5044706;28;20212;-71
2023/04/08 00:22:24;;;;;;;16.40;12.80;;;;;;;12.19;61.01;97678.78;5049673;28;20232;-71
2023/04/08 00:24:50;;;;;;;16.73;12.53;;;;;;;12.14;61.20;97679.25;5048991;28;20293;-70
2023/04/08 00:27:15;;;;;;;14.80;12.93;;;;;;;12.13;61.26;97674.97;5041599;28;20210;-70
2023/04/08 00:29:41;;;;;;;14.80;12.27;;;;;;;12.19;61.22;97677.97;5047637;28;20199;-69
2023/04/08 00:32:06;;;;;;;15.90;12.33;;;;;;;12.18;60.83;97677.13;5042783;28;20226;-71
2023/04/08 00:34:32;;;;;;;13.50;10.87;;;;;;;12.20;61.08;97684.88;5038716;28;20180;-70
2023/04/08 00:36:58;;;;;;;13.77;11.63;;;;;;;12.18;61.17;97668.44;5033492;28;20196;-69
2023/04/08 00:39:23;;;;;;;15.70;12.87;;;;;;;12.21;61.19;97682.09;5054069;28;20580;-69
2023/04/08 00:41:49;;;;;;;15.60;12.03;;;;;;;12.21;60.77;97666.31;5041966;28;20516;-69
2023/04/08 00:44:14;;;;;;;14.80;11.27;;;;;;;12.17;61.22;97677.28;5047117;28;20697;-70
2023/04/08 00:46:40;;;;;;;12.70;10.90;;;;;;;12.19;60.74;97677.97;5035968;28;20495;-71
2023/04/08 00:49:06;;;;;;;15.83;11.13;;;;;;;12.17;60.48;97679.94;5057145;28;20702;-70
2023/04/08 00:51:32;;;;;;;12.50;10.27;;;;;;;12.17;60.51;97685.19;5038884;28;20184;-71
2023/04/08 00:53:59;;;;;;;13.60;11.70;;;;;;;12.13;60.38;97690.72;5046232;28;20449;-71
2023/04/08 00:56:25;;;;;;;13.00;10.60;;;;;;;12.11;60.68;97691.88;5049274;28;20428;-71
2023/04/08 00:58:53;;;;;;;13.07;10.87;;;;;;;12.09;60.46;97689.41;5061986;28;20425;-71
2023/04/08 01:01:34;;;;;;;11.30;10.00;;;;;;;12.05;60.88;97697.69;5049633;28;20213;-71
2023/04/08 01:04:18;;;;;;;14.37;10.97;;;;;;;12.04;60.58;97689.00;5047739;28;20968;-72
2023/04/08 01:06:46;;;;;;;12.63;10.40;;;;;;;12.03;60.67;97689.97;5056388;28;20448;-71
2023/04/08 01:09:12;;;;;;;9.93;8.93;;;;;;;12.06;60.94;97689.69;5049533;28;20480;-71
2023/04/08 01:11:44;;;;;;;11.00;9.73;;;;;;;12.08;60.82;97695.63;5046371;28;20518;-72
2023/04/08 01:14:11;;;;;;;13.83;11.20;;;;;;;12.09;60.27;97699.91;5053849;28;20429;-71
2023/04/08 01:16:40;;;;;;;10.70;9.57;;;;;;;12.11;60.64;97700.56;5043232;28;20450;-71
2023/04/08 01:19:07;;;;;;;10.23;9.10;;;;;;;12.08;60.49;97698.25;5034668;28;21126;-71
2023/04/08 01:21:34;;;;;;;13.83;9.70;;;;;;;12.05;60.57;97698.53;5041181;28;20528;-71
2023/04/08 01:24:13;;;;;;;12.07;9.23;;;;;;;12.08;60.34;97695.63;5039575;28;20528;-71
2023/04/08 01:26:39;;;;;;;12.17;10.33;;;;;;;12.08;60.42;97694.78;5039526;28;20561;-71
2023/04/08 01:29:05;;;;;;;11.53;10.10;;;;;;;12.04;60.29;97696.88;5045175;28;20429;-71
2023/04/08 01:31:31;;;;;;;11.50;9.97;;;;;;;12.07;60.13;97693.97;5039718;28;20499;-71
2023/04/08 01:33:59;;;;;;;11.23;10.00;;;;;;;12.06;60.25;97687.06;5056031;28;20432;-70
2023/04/08 01:36:25;;;;;;;10.33;9.23;;;;;;;12.07;60.41;97695.75;5036090;28;20187;-72
2023/04/08 01:38:50;;;;;;;11.00;9.80;;;;;;;12.09;60.40;97694.66;5039042;28;20419;-71
2023/04/08 01:41:17;;;;;;;11.37;9.43;;;;;;;12.13;60.51;97697.78;5048055;28;20206;-71
2023/04/08 01:43:44;;;;;;;13.40;9.90;;;;;;;12.16;59.92;97688.78;5048603;28;20295;-72
2023/04/08 01:46:10;;;;;;;10.77;9.57;;;;;;;12.12;60.10;97691.69;5032820;28;20505;-70
2023/04/08 01:48:36;;;;;;;10.63;9.30;;;;;;;12.11;59.88;97690.03;5052305;28;20178;-71
2023/04/08 01:51:03;;;;;;;11.30;9.63;;;;;;;12.12;59.76;97691.69;5047169;28;20416;-70
2023/04/08 01:53:28;;;;;;;10.50;9.40;;;;;;;12.11;60.06;97687.41;5047635;28;20187;-70
2023/04/08 01:56:02;;;;;;;11.30;9.63;;;;;;;12.10;59.66;97690.22;5046859;28;20424;-71
2023/04/08 01:58:32;;;;;;;10.20;9.10;;;;;;;12.06;59.76;97689.69;5047549;28;20703;-71
2023/04/08 02:00:57;;;;;;;11.23;9.60;;;;;;;12.04;60.19;97688.16;5031069;28;20541;-71
2023/04/08 02:03:24;;;;;;;14.07;10.87;;;;;;;12.05;59.98;97695.06;5055187;28;20489;-71
2023/04/08 02:05:50;;;;;;;12.57;10.40;;;;;;;12.02;59.76;97683.06;5038477;28;20839;-71
2023/04/08 02:08:15;;;;;;;15.37;11.03;;;;;;;11.98;59.63;97692.22;5048039;28;20477;-71
2023/04/08 02:10:40;;;;;;;14.00;10.50;;;;;;;11.97;59.99;97690.56;5048116;28;20188;-71
2023/04/08 02:13:06;;;;;;;12.23;10.30;;;;;;;11.94;60.28;97698.72;5044117;28;20257;-70
2023/04/08 02:15:34;;;;;;;12.07;10.47;;;;;;;11.91;60.23;97696.41;5049151;28;20182;-71
2023/04/08 02:18:06;;;;;;;13.70;10.50;;;;;;;11.90;60.23;97692.97;5042205;28;20207;-69
2023/04/08 02:20:43;;;;;;;12.87;10.50;;;;;;;11.92;60.20;97698.06;5034111;28;20479;-71
2023/04/08 02:23:19;;;;;;;14.17;10.80;;;;;;;11.84;60.05;97696.97;5049797;28;20429;-70
2023/04/08 02:25:45;;;;;;;15.60;11.20;;;;;;;11.81;60.32;97697.28;5037100;28;20892;-70
2023/04/08 02:28:11;;;;;;;17.43;11.40;;;;;;;11.83;60.71;97697.97;5044473;28;20810;-71
2023/04/08 02:30:40;;;;;;;17.70;11.67;;;;;;;11.89;60.22;97701.81;5039543;28;20422;-72
2023/04/08 02:33:07;;;;;;;12.60;10.13;;;;;;;11.92;59.98;97693.59;5046515;28;20447;-73
2023/04/08 02:35:33;;;;;;;15.03;10.43;;;;;;;11.86;60.38;97693.38;5048228;28;21172;-71
2023/04/08 02:37:58;;;;;;;12.43;9.90;;;;;;;11.90;59.92;97695.59;5034772;28;20451;-70
2023/04/08 02:40:31;;;;;;;12.87;10.90;;;;;;;11.95;60.07;97697.75;5047634;28;20784;-71
2023/04/08 02:42:57;;;;;;;14.53;11.67;;;;;;;11.87;59.88;97698.50;5032506;28;20184;-70
2023/04/08 02:45:27;;;;;;;13.53;10.50;;;;;;;11.88;59.96;97691.44;5054955;28;20420;-70
2023/04/08 02:47:52;;;;;;;16.87;10.40;;;;;;;11.89;59.82;97693.94;5053701;28;20437;-70
2023/04/08 02:50:18;;;;;;;13.73;10.17;;;;;;;11.88;60.12;97696.69;5047406;28;21076;-71
2023/04/08 02:52:43;;;;;;;14.47;10.73;;;;;;;11.89;59.55;97693.94;5038579;28;20562;-71
2023/04/08 02:55:09;;;;;;;12.70;10.67;;;;;;;11.87;59.91;97701.13;5055473;28;20182;-72
2023/04/08 02:57:36;;;;;;;13.43;10.70;;;;;;;11.82;59.83;97698.94;5048380;28;20284;-70
2023/04/08 03:00:03;;;;;;;16.10;11.23;;;;;;;11.74;60.16;97692.78;5055821;28;20234;-71
2023/04/08 03:02:28;;;;;;;13.87;11.03;;;;;;;11.69;60.20;97698.47;5045905;28;20418;-71
2023/04/08 03:04:54;;;;;;;14.87;10.47;;;;;;;11.76;60.24;97699.53;5040688;28;20430;-71
2023/04/08 03:07:19;;;;;;;15.07;11.10;;;;;;;11.80;59.54;97700.88;5048143;28;20683;-71
2023/04/08 03:09:45;;;;;;;15.33;11.00;;;;;;;11.74;59.55;97695.41;5053671;28;20319;-70
2023/04/08 03:12:10;;;;;;;16.13;11.00;;;;;;;11.63;60.17;97697.25;5058619;28;20200;-70
2023/04/08 03:14:36;;;;;;;13.57;10.53;;;;;;;11.73;59.95;97691.94;5054249;28;20270;-71
2023/04/08 03:17:01;;;;;;;13.27;10.30;;;;;;;11.73;59.65;97699.81;5044535;28;20221;-71
2023/04/08 03:19:27;;;;;;;13.93;9.87;;;;;;;11.66;59.77;97690.88;5050355;28;20310;-71
2023/04/08 03:21:52;;;;;;;12.73;9.73;;;;;;;11.60;59.70;97694.94;5047758;28;20183;-71
2023/04/08 03:24:17;;;;;;;12.50;9.27;;;;;;;11.64;59.90;97698.06;5047918;28;20311;-70
2023/04/08 03:26:43;;;;;;;12.90;9.20;;;;;;;11.67;59.56;97703.03;5041820;28;20232;-70
2023/04/08 03:29:08;;;;;;;12.73;9.43;;;;;;;11.72;59.60;97697.34;5030737;28;20197;-71
2023/04/08 03:31:34;;;;;;;15.13;9.50;;;;;;;11.73;59.28;97697.19;5048741;28;20252;-72
2023/04/08 03:34:00;;;;;;;14.23;9.40;;;;;;;11.72;59.05;97698.16;5045512;28;20183;-72
2023/04/08 03:36:25;;;;;;;11.33;8.97;;;;;;;11.70;59.00;97700.13;5030959;28;20219;-72
2023/04/08 03:38:51;;;;;;;13.27;9.80;;;;;;;11.73;59.09;97699.81;5035994;28;20195;-71
2023/04/08 03:41:16;;;;;;;15.60;10.03;;;;;;;11.72;59.12;97695.53;5047029;28;20203;-71
2023/04/08 03:43:42;;;;;;;14.20;10.33;;;;;;;11.65;59.35;97697.09;5051746;28;20187;-70
2023/04/08 03:46:07;;;;;;;13.10;10.17;;;;;;;11.58;59.62;97701.31;5036019;28;20185;-69
2023/04/08 03:48:33;;;;;;;14.10;10.30;;;;;;;11.64;59.63;97695.44;5050227;28;20211;-70
2023/04/08 03:50:58;;;;;;;15.00;10.83;;;;;;;11.70;59.54;97704.53;5040375;28;20177;-70
2023/04/08 03:53:23;;;;;;;14.77;10.07;;;;;;;11.67;59.21;97706.47;5035879;28;20194;-70
2023/04/08 03:55:51;;;;;;;15.87;10.47;;;;;;;11.70;59.29;97705.38;5035120;28;20266;-70
2023/04/08 03:58:17;;;;;;;15.73;10.60;;;;;;;11.68;59.39;97700.25;5036117;28;20785;-69
2023/04/08 04:00:42;;;;;;;18.60;12.50;;;;;;;11.71;59.58;97695.69;5049066;28;20543;-70
2023/04/08 04:03:09;;;;;;;16.70;11.40;;;;;;;11.77;59.38;97695.94;5045654;28;20270;-70
2023/04/08 04:05:35;;;;;;;15.93;11.30;;;;;;;11.78;59.47;97694.97;5043651;28;20266;-71
2023/04/08 04:08:01;;;;;;;15.50;10.77;;;;;;;11.79;59.19;97696.59;5049867;28;20470;-69
2023/04/08 04:10:26;;;;;;;30.27;16.60;;;;;;;11.81;59.16;97699.91;5048144;28;20594;-69
2023/04/08 04:12:52;;;;;;;18.83;12.90;;;;;;;11.78;58.90;97702.84;5056543;28;20187;-71
2023/04/08 04:15:17;;;;;;;15.73;10.50;;;;;;;11.77;59.41;97698.56;5042707;28;20194;-71
2023/04/08 04:17:42;;;;;;;14.30;10.10;;;;;;;11.73;59.19;97705.06;5036600;28;20294;-71
2023/04/08 04:20:09;;;;;;;16.10;10.63;;;;;;;11.74;59.08;97708.53;5043017;28;20650;-71
2023/04/08 04:22:34;;;;;;;13.20;9.90;;;;;;;11.76;59.09;97699.53;5046156;28;20184;-70
2023/04/08 04:24:59;;;;;;;11.60;9.00;;;;;;;11.78;58.54;97702.84;5037655;28;20423;-71
2023/04/08 04:27:25;;;;;;;13.30;8.53;;;;;;;11.79;58.80;97708.91;5035406;28;20293;-70
2023/04/08 04:29:50;;;;;;;12.20;8.80;;;;;;;11.77;58.89;97716.13;5041132;28;20183;-70
2023/04/08 04:32:16;;;;;;;12.20;8.47;;;;;;;11.75;58.86;97710.19;5048874;28;20226;-70
2023/04/08 04:34:43;;;;;;;13.43;9.27;;;;;;;11.79;58.79;97701.03;5048176;28;20190;-72
2023/04/08 04:37:08;;;;;;;14.30;9.63;;;;;;;11.74;58.60;97706.72;5057911;28;20199;-71
2023/04/08 04:39:34;;;;;;;16.13;10.00;;;;;;;11.74;58.93;97711.97;5048952;28;20458;-70
2023/04/08 04:41:59;;;;;;;17.77;10.73;;;;;;;11.74;58.87;97711.97;5038796;28;20238;-71
2023/04/08 04:44:25;;;;;;;18.77;11.83;;;;;;;11.76;58.93;97719.72;5053269;28;20183;-72
2023/04/08 04:46:50;;;;;;;13.63;10.53;;;;;;;11.74;59.01;97722.47;5044342;28;20203;-70
2023/04/08 04:49:15;;;;;;;16.50;11.87;;;;;;;11.74;59.14;97714.59;5048340;28;20270;-69
2023/04/08 04:51:41;;;;;;;15.60;11.90;;;;;;;11.72;58.90;97729.66;5039461;28;20207;-71
2023/04/08 04:54:06;;;;;;;19.53;12.23;;;;;;;11.73;59.33;97720.81;5044211;28;20194;-70
2023/04/08 04:56:32;;;;;;;14.67;11.47;;;;;;;11.66;59.35;97719.78;5045705;28;20199;-70
2023/04/08 04:58:57;;;;;;;16.37;12.07;;;;;;;11.61;59.10;97727.25;5042804;28;20187;-71
2023/04/08 05:01:23;;;;;;;16.60;12.63;;;;;;;11.51;59.27;97729.94;5038952;28;20210;-70
2023/04/08 05:03:48;;;;;;;14.93;11.77;;;;;;;11.50;59.63;97736.16;5053653;28;20232;-70
2023/04/08 05:06:14;;;;;;;16.20;12.13;;;;;;;11.55;59.65;97738.34;5058168;28;20274;-71
2023/04/08 05:08:39;;;;;;;16.23;12.10;;;;;;;11.51;59.63;97730.75;5055247;28;20774;-70
2023/04/08 05:11:08;;;;;;;15.53;11.40;;;;;;;11.50;59.80;97734.34;5053107;28;20273;-71
2023/04/08 05:13:34;;;;;;;15.50;11.70;;;;;;;11.46;59.93;97742.66;5047118;28;20183;-70
2023/04/08 05:16:00;;;;;;;17.33;11.37;;;;;;;11.42;60.10;97742.13;5043286;28;20654;-68
2023/04/08 05:18:25;;;;;;;15.83;12.37;;;;;;;11.46;60.05;97740.88;5042298;28;20203;-70
2023/04/08 05:20:51;;;;;;;16.10;12.00;;;;;;;11.41;60.20;97745.72;5055516;28;20214;-71
2023/04/08 05:23:16;;;;;;;19.80;12.30;;;;;;;11.40;60.03;97738.81;5048543;28;20309;-70
2023/04/08 05:25:42;;;;;;;17.00;12.83;;;;;;;11.41;60.37;97743.09;5038014;28;20191;-70
2023/04/08 05:28:08;;;;;;;18.87;13.00;;;;;;;11.39;60.47;97746.84;5037361;28;20688;-70
2023/04/08 05:30:33;;;;;;;16.20;12.30;;;;;;;11.36;60.55;97751.41;5041204;28;20195;-70
2023/04/08 05:32:59;;;;;;;25.80;13.20;;;;;;;11.37;60.44;97749.59;5048642;28;20476;-71
2023/04/08 05:35:24;;;;;;;21.37;14.20;;;;;;;11.43;60.61;97750.81;5040873;28;20187;-70
2023/04/08 05:37:49;;;;;;;21.57;13.90;;;;;;;11.44;60.72;97753.31;5040244;28;20208;-70
2023/04/08 05:40:15;;;;;;;17.40;13.70;;;;;;;11.49;60.46;97752.88;5038831;28;20203;-69
2023/04/08 05:42:41;;;;;;;21.67;14.40;;;;;;;11.47;60.37;97758.25;5050876;28;20182;-70
2023/04/08 05:45:07;;;;;;;19.40;14.33;;;;;;;11.52;60.50;97763.91;5049850;28;20190;-69
2023/04/08 05:47:32;;;;;;;17.60;13.10;;;;;;;11.56;60.42;97766.25;5056847;28;20437;-70
2023/04/08 05:49:58;;;;;;;21.67;14.53;;;;;;;11.55;60.28;97773.28;5048576;28;20208;-70
2023/04/08 05:52:23;;;;;;;19.37;13.37;;;;;;;11.51;60.63;97767.50;5047188;28;20274;-70
2023/04/08 05:54:49;;;;;;;16.97;13.37;;;;;;;11.49;60.78;97771.25;5043967;28;20189;-70
2023/04/08 05:57:15;;;;;;;33.90;18.13;;;;;;;11.50;60.74;97773.72;5046965;28;20203;-71
2023/04/08 05:59:41;;;;;;;34.83;17.90;;;;;;;11.48;61.00;97770.41;5040959;28;20256;-70
2023/04/08 06:02:06;;;;;;;20.67;14.13;;;;;;;11.53;60.84;97773.44;5048733;28;20426;-70
2023/04/08 06:04:32;;;;;;;18.47;13.00;;;;;;;11.59;60.76;97773.84;5048051;28;20835;-70
2023/04/08 06:07:01;;;;;;;15.37;11.57;;;;;;;11.60;60.66;97778.09;5048067;28;20237;-71
2023/04/08 06:09:27;;;;;;;14.83;11.57;;;;;;;11.67;60.02;97779.19;5046786;28;20189;-70
2023/04/08 06:11:52;;;;;;;14.50;11.60;;;;;;;11.67;60.16;97787.88;5019412;28;20983;-70
2023/04/08 06:14:19;;;;;;;14.97;11.60;;;;;;;11.70;60.00;97789.41;5047543;28;20261;-70
2023/04/08 06:16:45;;;;;;;17.53;11.70;;;;;;;11.73;60.11;97790.91;5054001;28;20235;-71
2023/04/08 06:19:10;;;;;;;12.03;10.50;;;;;;;11.75;59.81;97792.41;5050186;28;20457;-70
2023/04/08 06:21:36;;;;;;;11.97;10.60;;;;;;;11.76;59.60;97793.25;5039567;28;20305;-71
2023/04/08 06:24:01;;;;;;;13.27;10.47;;;;;;;11.77;59.59;97790.47;5047610;28;20278;-70
2023/04/08 06:26:27;;;;;;;12.80;10.80;;;;;;;11.77;59.55;97795.72;5041448;28;20191;-69
2023/04/08 06:28:53;;;;;;;13.67;11.27;;;;;;;11.81;59.36;97788.38;5047120;28;20274;-69
2023/04/08 06:31:19;;;;;;;14.70;11.50;;;;;;;11.80;59.55;97795.44;5047743;28;20745;-69
2023/04/08 06:33:44;;;;;;;14.27;11.40;;;;;;;11.81;59.77;97797.09;5048334;28;20444;-69
2023/04/08 06:36:12;;;;;;;13.13;10.80;;;;;;;11.84;59.41;97807.28;5047209;28;20277;-70
2023/04/08 06:38:37;;;;;;;16.10;11.90;;;;;;;11.83;59.30;97804.81;5046314;28;20791;-70
2023/04/08 06:41:06;;;;;;;14.43;11.43;;;;;;;11.80;59.50;97800.69;5054184;28;20475;-69
2023/04/08 06:43:33;;;;;;;14.37;12.30;;;;;;;11.85;59.65;97808.13;5041250;28;20195;-69
2023/04/08 06:45:58;;;;;;;13.10;11.20;;;;;;;11.86;59.37;97809.78;5053283;28;20830;-69
2023/04/08 06:48:29;;;;;;;15.03;11.70;;;;;;;11.92;59.33;97814.44;5056508;28;20444;-69
2023/04/08 06:50:59;;;;;;;12.77;10.47;;;;;;;11.92;59.04;97808.38;5044659;28;20221;-70
2023/04/08 06:53:26;;;;;;;14.03;10.13;;;;;;;11.96;58.88;97815.00;5053012;28;20430;-70
2023/04/08 06:55:52;;;;;;;12.57;10.80;;;;;;;11.98;58.47;97808.66;5046536;28;20418;-69
2023/04/08 06:58:17;;;;;;;11.30;9.13;;;;;;;12.03;58.92;97816.09;5047811;28;20456;-70
2023/04/08 07:00:43;;;;;;;15.57;10.77;;;;;;;12.03;58.59;97810.81;5047322;28;20201;-69
2023/04/08 07:03:10;;;;;;;12.87;10.80;;;;;;;12.05;58.92;97815.94;5055022;28;20565;-70
2023/04/08 07:05:35;;;;;;;13.00;9.20;;;;;;;12.04;58.68;97817.75;5055720;28;20233;-71
2023/04/08 07:08:01;;;;;;;11.77;8.90;;;;;;;12.06;58.77;97818.44;5057521;28;20445;-70
2023/04/08 07:10:26;;;;;;;10.23;9.10;;;;;;;12.08;58.34;97819.09;5056001;28;20178;-71
2023/04/08 07:12:53;;;;;;;11.80;9.90;;;;;;;12.12;58.45;97820.44;5042472;28;20190;-71
2023/04/08 07:15:18;;;;;;;12.20;9.90;;;;;;;12.14;58.60;97820.31;5043021;28;20618;-70
2023/04/08 07:17:44;;;;;;;15.73;11.90;;;;;;;12.11;58.65;97825.88;5034733;28;20537;-70
2023/04/08 07:20:09;;;;;;;17.47;12.37;;;;;;;12.13;58.28;97827.34;5044515;28;20795;-70
2023/04/08 07:22:35;;;;;;;18.50;12.80;;;;;;;12.17;58.72;97827.06;5047297;28;20183;-71
2023/04/08 07:25:01;;;;;;;22.10;14.77;;;;;;;12.22;58.62;97832.72;5048935;28;20670;-71
2023/04/08 07:27:27;;;;;;;20.60;15.67;;;;;;;12.25;58.26;97837.66;5056331;28;20214;-72
2023/04/08 07:29:55;;;;;;;16.10;13.23;;;;;;;12.27;58.20;97840.97;5054798;28;20421;-71
2023/04/08 07:32:21;;;;;;;18.30;13.50;;;;;;;12.31;58.21;97842.34;5048384;28;20614;-71
2023/04/08 07:34:47;;;;;;;16.37;12.10;;;;;;;12.23;58.09;97842.22;5049502;28;20426;-70
2023/04/08 07:37:12;;;;;;;15.97;12.23;;;;;;;12.24;58.36;97843.88;5046937;28;20248;-72
2023/04/08 07:39:38;;;;;;;17.40;12.67;;;;;;;12.24;58.34;97849.16;5049383;28;20982;-71
2023/04/08 07:42:03;;;;;;;17.73;14.20;;;;;;;12.28;57.96;97847.88;5034858;28;20620;-71
2023/04/08 07:44:29;;;;;;;18.63;13.80;;;;;;;12.34;58.28;97842.06;5039765;28;20270;-70
2023/04/08 07:46:54;;;;;;;16.47;12.80;;;;;;;12.41;58.12;97851.00;5043191;28;20200;-71
2023/04/08 07:49:20;;;;;;;21.00;15.23;;;;;;;12.52;58.32;97843.88;5033614;28;20657;-72
2023/04/08 07:51:45;;;;;;;14.97;12.13;;;;;;;12.52;57.49;97843.88;5034133;28;20187;-71
2023/04/08 07:54:15;;;;;;;17.80;13.13;;;;;;;12.55;57.29;97847.00;5031044;28;20192;-71
2023/04/08 07:56:43;;;;;;;20.30;13.00;;;;;;;12.62;57.56;97849.88;5040214;28;20184;-71
2023/04/08 07:59:09;;;;;;;19.07;14.67;;;;;;;12.64;56.87;97850.56;5040741;28;20422;-73
2023/04/08 08:01:35;;;;;;;17.67;13.30;;;;;;;12.74;56.91;97853.13;5042004;28;20469;-71
2023/04/08 08:04:00;;;;;;;16.40;12.60;;;;;;;12.80;56.75;97849.06;5041074;28;20437;-72
2023/04/08 08:06:28;;;;;;;16.40;12.80;;;;;;;12.85;56.55;97846.81;5049099;28;20190;-70
2023/04/08 08:08:54;;;;;;;14.27;12.07;;;;;;;12.88;55.97;97857.84;5035340;28;20191;-71
2023/04/08 08:11:21;;;;;;;17.00;13.33;;;;;;;12.89;56.09;97848.16;5047828;28;20419;-72
2023/04/08 08:13:46;;;;;;;19.50;12.67;;;;;;;12.89;55.95;97845.53;5052012;28;20175;-72
2023/04/08 08:16:11;;;;;;;14.83;12.17;;;;;;;13.01;55.81;97844.31;5052473;28;20425;-70
2023/04/08 08:18:38;;;;;;;14.07;11.30;;;;;;;13.09;54.93;97848.81;5042810;28;20752;-72
2023/04/08 08:21:04;;;;;;;13.83;11.90;;;;;;;13.19;55.22;97846.09;5062025;28;20297;-71
2023/04/08 08:23:30;;;;;;;15.70;12.67;;;;;;;13.28;54.67;97850.44;5051798;28;20522;-71
2023/04/08 08:26:00;;;;;;;17.87;12.40;;;;;;;13.29;54.42;97853.91;5050350;28;20226;-72
2023/04/08 08:28:26;;;;;;;16.53;12.07;;;;;;;13.38;54.11;97858.25;5042746;28;20223;-71
2023/04/08 08:30:51;;;;;;;13.87;10.47;;;;;;;13.37;53.61;97864.47;5056410;28;20418;-72
2023/04/08 08:33:17;;;;;;;15.33;12.87;;;;;;;13.37;53.25;97862.66;5050141;28;20203;-72
2023/04/08 08:35:42;;;;;;;15.43;12.47;;;;;;;13.35;53.05;97872.53;5049906;28;20262;-72
2023/04/08 08:38:07;;;;;;;15.50;13.23;;;;;;;13.24;53.41;97870.13;5050967;28;20230;-72
2023/04/08 08:40:33;;;;;;;15.30;12.43;;;;;;;13.28;53.14;97871.50;5056857;28;20238;-72
2023/04/08 08:43:00;;;;;;;15.20;12.50;;;;;;;13.31;52.98;97878.25;5060244;28;20855;-72
2023/04/08 08:45:26;;;;;;;15.07;12.60;;;;;;;13.36;52.63;97883.88;5055660;28;20673;-72
2023/04/08 08:47:51;;;;;;;15.03;12.33;;;;;;;13.38;52.81;97868.78;5043220;28;20445;-72
2023/04/08 08:50:17;;;;;;;15.60;12.87;;;;;;;13.35;52.66;97874.34;5045505;28;20210;-70
2023/04/08 08:52:50;;;;;;;15.87;12.53;;;;;;;13.44;53.00;97876.06;5054921;28;20179;-71
2023/04/08 08:55:17;;;;;;;13.90;12.33;;;;;;;13.51;52.68;97871.00;5043126;28;20434;-71
2023/04/08 08:57:44;;;;;;;15.00;11.90;;;;;;;13.58;51.86;97872.06;5040199;28;20862;-72
2023/04/08 09:00:10;;;;;;;17.03;13.00;;;;;;;13.81;51.86;97874.16;5049943;28;20445;-71
2023/04/08 09:02:35;;;;;;;16.53;13.30;;;;;;;13.94;50.41;97881.63;5035884;28;20954;-71
2023/04/08 09:05:02;;;;;;;15.37;12.53;;;;;;;14.18;50.10;97870.38;5045099;28;20194;-71
2023/04/08 09:07:34;;;;;;;14.63;12.40;;;;;;;14.42;50.00;97876.72;5042531;28;20590;-72
2023/04/08 09:10:00;;;;;;;15.40;12.60;;;;;;;14.66;49.09;97878.59;5043710;28;20856;-72
2023/04/08 09:12:27;;;;;;;14.60;12.43;;;;;;;14.88;48.36;97882.44;5035690;28;20498;-71
2023/04/08 09:15:05;;;;;;;15.33;13.17;;;;;;;15.06;47.67;97881.47;5047311;28;20190;-72
2023/04/08 09:17:38;;;;;;;13.00;11.60;;;;;;;15.30;47.57;97880.66;5039936;28;20461;-71
2023/04/08 09:20:10;;;;;;;14.77;12.63;;;;;;;15.56;47.00;97878.81;5030515;28;20549;-71
2023/04/08 09:23:08;;;;;;;15.20;12.47;;;;;;;15.68;45.17;97871.38;5030150;28;20465;-71
2023/04/08 09:25:33;;;;;;;14.43;12.83;;;;;;;15.73;44.51;97869.88;5031564;28;20435;-71
2023/04/08 09:28:01;;;;;;;15.97;13.57;;;;;;;15.77;43.04;97876.44;5034495;28;20499;-71
2023/04/08 09:30:27;;;;;;;17.23;13.37;;;;;;;15.69;42.10;97883.59;5033031;28;20556;-72
2023/04/08 09:32:55;;;;;;;18.43;11.40;;;;;;;15.71;42.16;97879.78;5035071;28;20440;-72
2023/04/08 09:35:21;;;;;;;15.17;13.03;;;;;;;15.69;41.98;97878.31;5036678;28;20195;-72
2023/04/08 09:37:47;;;;;;;15.40;13.60;;;;;;;15.66;42.11;97875.00;5034524;28;20450;-72
2023/04/08 09:40:15;;;;;;;17.90;13.20;;;;;;;15.70;42.59;97883.41;5029835;28;20545;-72
2023/04/08 09:42:43;;;;;;;14.37;12.87;;;;;;;15.77;42.78;97887.00;5036408;28;20417;-72
2023/04/08 09:45:10;;;;;;;22.57;15.97;;;;;;;15.73;41.31;97877.78;5039869;28;20429;-72
2023/04/08 09:48:06;;;;;;;26.90;22.67;;;;;;;15.75;40.93;97883.72;5040983;28;21007;-72
2023/04/08 09:50:35;;;;;;;19.67;15.80;;;;;;;15.80;40.28;97876.09;5032772;28;20423;-72
2023/04/08 09:53:18;;;;;;;18.83;14.07;;;;;;;15.84;40.28;97875.78;5055647;28;20429;-72
2023/04/08 09:55:50;;;;;;;17.10;13.73;;;;;;;15.97;40.17;97874.25;5037866;28;20434;-74
2023/04/08 09:58:18;;;;;;;14.27;12.30;;;;;;;16.11;38.23;97875.38;5039091;28;20439;-72
2023/04/08 10:00:49;;;;;;;15.97;12.07;;;;;;;16.26;38.97;97879.94;5028927;28;21288;-73
2023/04/08 10:03:17;;;;;;;14.03;12.13;;;;;;;16.34;39.69;97882.56;5032506;28;20441;-73
2023/04/08 10:05:43;;;;;;;23.43;14.37;;;;;;;16.36;40.44;97883.22;5043685;28;20542;-72
2023/04/08 10:08:09;;;;;;;15.53;13.40;;;;;;;16.42;40.70;97884.34;5034620;28;20450;-71
2023/04/08 10:10:37;;;;;;;14.17;11.67;;;;;;;16.35;40.28;97886.84;5031044;28;20419;-72
2023/04/08 10:13:03;;;;;;;16.13;12.43;;;;;;;16.39;40.24;97889.97;5031640;28;20223;-72
2023/04/08 10:15:32;;;;;;;15.87;13.10;;;;;;;16.37;39.54;97884.03;5032885;28;20418;-72
2023/04/08 10:18:04;;;;;;;15.50;12.87;;;;;;;16.44;38.93;97877.06;5033216;28;20454;-73
2023/04/08 10:20:32;;;;;;;14.00;12.50;;;;;;;16.46;38.61;97890.09;5037360;28;20813;-72
2023/04/08 10:22:58;;;;;;;14.33;12.93;;;;;;;16.46;38.55;97879.53;5035389;28;20413;-73
2023/04/08 10:25:34;;;;;;;17.60;13.37;;;;;;;16.47;38.45;97883.81;5043339;28;20494;-72
2023/04/08 10:28:21;;;;;;;15.47;13.20;;;;;;;16.33;38.36;97878.25;5036711;28;20228;-72
2023/04/08 10:30:47;;;;;;;13.77;12.03;;;;;;;16.24;37.17;97881.94;5037072;28;20464;-72
2023/04/08 10:33:18;;;;;;;13.83;12.43;;;;;;;16.15;36.72;97880.31;5046132;28;20434;-72
2023/04/08 10:35:49;;;;;;;12.80;11.50;;;;;;;16.05;36.69;97883.19;5026618;28;20429;-71
2023/04/08 10:38:15;;;;;;;14.50;12.83;;;;;;;15.78;36.41;97883.38;5032980;28;20477;-72
2023/04/08 10:40:41;;;;;;;14.30;12.17;;;;;;;15.64;37.82;97886.72;5034134;28;20524;-71
2023/04/08 10:43:11;;;;;;;17.73;13.43;;;;;;;15.48;38.96;97888.41;5038156;28;20995;-72
2023/04/08 10:45:37;;;;;;;13.87;11.83;;;;;;;15.34;38.80;97889.88;5042306;28;20422;-73
2023/04/08 10:48:27;;;;;;;14.93;12.77;;;;;;;15.29;39.02;97886.94;5045000;28;20789;-73
2023/04/08 10:50:58;;;;;;;14.33;12.70;;;;;;;15.25;39.14;97893.53;5032965;28;20420;-71
2023/04/08 10:53:34;;;;;;;16.80;12.50;;;;;;;15.20;40.17;97888.75;5040411;28;20456;-72
2023/04/08 10:56:13;;;;;;;16.93;12.73;;;;;;;15.19;39.94;97889.72;5034849;28;20434;-72
2023/04/08 10:58:55;;;;;;;16.53;12.30;;;;;;;15.22;40.41;97887.75;5041878;28;20461;-71
2023/04/08 11:01:20;;;;;;;14.20;11.43;;;;;;;15.26;40.71;97883.78;5036829;28;20458;-72
2023/04/08 11:03:46;;;;;;;16.80;12.40;;;;;;;15.27;40.73;97896.00;5042385;28;20809;-72
2023/04/08 11:06:11;;;;;;;16.60;13.30;;;;;;;15.21;39.91;97892.19;5043032;28;20239;-70
2023/04/08 11:08:37;;;;;;;18.13;13.10;;;;;;;15.04;38.90;97883.44;5046737;28;20607;-69
2023/04/08 11:11:09;;;;;;;17.57;12.33;;;;;;;14.92;38.58;97887.41;5049072;28;20186;-70
2023/04/08 11:13:39;;;;;;;20.40;12.13;;;;;;;14.86;39.08;97895.00;5051569;28;20194;-70
2023/04/08 11:16:06;;;;;;;14.90;12.03;;;;;;;14.84;39.21;97893.50;5036215;28;20436;-71
2023/04/08 11:18:33;;;;;;;17.30;13.00;;;;;;;14.73;39.25;97895.44;5047226;28;20842;-70